Time;durP1;ratioP1;P1;durP2;ratioP2;P2;SDS_P1;SDS_P2;PMS_P1;PMS_P2;Temp;Humidity;BMP_temperature;BMP_pressure;BME280_temperature;BME280_humidity;BME280_pressure;Samples;Min_cycle;Max_cycle;Signal;HPM_P1;HPM_P2
2021/11/17 02:27:12;;;;;;;13.65;10.02;;;5.50;81.30;;;3.56;93.58;96323.03;4904968;29;20067;-68
2021/11/17 02:30:27;;;;;;;13.88;10.02;;;5.50;81.60;;;3.57;94.12;96332.50;4893021;29;20052;-68
2021/11/17 02:33:08;;;;;;;15.45;10.15;;;5.60;81.50;;;3.58;94.07;96323.72;4947164;28;20094;-69
2021/11/17 02:36:00;;;;;;;14.60;10.23;;;5.60;81.60;;;3.59;94.08;96324.53;4929491;28;20071;-69
2021/11/17 02:39:16;;;;;;;15.40;11.38;;;5.60;81.50;;;3.61;94.33;96322.63;4940977;28;20032;-69
2021/11/17 02:41:58;;;;;;;17.85;12.05;;;5.70;81.90;;;3.61;94.66;96323.44;4948367;28;20035;-68
2021/11/17 02:44:54;;;;;;;15.65;11.77;;;5.70;81.80;;;3.63;95.12;96331.94;4950653;28;20031;-69
2021/11/17 02:47:46;;;;;;;17.20;12.15;;;5.70;81.90;;;3.62;94.45;96330.31;4937439;28;20042;-68
2021/11/17 02:50:22;;;;;;;17.75;12.45;;;5.70;81.90;;;3.63;94.36;96329.34;4936418;28;20047;-68
2021/11/17 02:53:10;;;;;;;18.77;12.57;;;5.60;82.00;;;3.62;94.53;96327.72;4948042;28;20043;-68
2021/11/17 02:55:58;;;;;;;17.88;13.45;;;5.60;82.00;;;3.62;94.76;96330.31;4950927;28;20085;-68
2021/11/17 02:59:17;;;;;;;19.13;13.52;;;5.60;82.30;;;3.63;94.96;96333.72;4950284;28;20045;-69
2021/11/17 03:01:52;;;;;;;17.85;12.25;;;5.70;82.20;;;3.63;94.83;96334.56;4946515;28;20039;-69
2021/11/17 03:04:55;;;;;;;18.80;14.10;;;5.70;82.20;;;3.66;94.92;96336.03;4950275;28;20451;-69
2021/11/17 03:07:51;;;;;;;21.80;14.13;;;5.70;82.20;;;3.66;94.83;96331.66;4948640;28;20045;-69
2021/11/17 03:10:34;;;;;;;18.05;13.70;;;5.70;82.10;;;3.67;94.33;96330.69;4950465;28;20036;-69
2021/11/17 03:13:36;;;;;;;19.58;13.25;;;5.70;81.70;;;3.66;94.40;96329.06;4963958;28;20101;-69
2021/11/17 03:16:10;;;;;;;18.00;12.85;;;5.60;82.10;;;3.67;94.95;96332.47;4939918;28;20126;-69
2021/11/17 03:19:10;;;;;;;17.75;12.93;;;5.60;82.20;;;3.63;94.11;96337.16;4952077;28;20035;-69
2021/11/17 03:21:54;;;;;;;18.88;13.15;;;5.60;82.30;;;3.62;95.19;96330.31;4950189;28;20127;-69
2021/11/17 03:24:46;;;;;;;16.15;11.95;;;5.60;82.30;;;3.63;95.07;96336.34;4954599;28;20043;-68
2021/11/17 03:27:39;;;;;;;19.83;13.63;;;5.60;82.30;;;3.63;94.78;96334.56;4969147;28;20532;-69
2021/11/17 03:30:31;;;;;;;18.08;12.93;;;5.70;82.50;;;3.62;94.57;96343.31;4937336;28;20423;-69
2021/11/17 03:33:20;;;;;;;17.25;12.65;;;5.60;82.20;;;3.63;95.70;96344.94;4952880;28;20490;-69
2021/11/17 03:36:24;;;;;;;17.38;11.98;;;5.70;82.40;;;3.64;95.57;96340.56;4953793;28;20045;-69
2021/11/17 03:39:40;;;;;;;19.30;12.82;;;5.70;82.50;;;3.67;95.27;96348.91;4953623;28;20038;-69
2021/11/17 03:42:31;;;;;;;18.27;12.85;;;5.70;82.50;;;3.67;95.51;96354.13;4933408;29;20050;-69
2021/11/17 03:45:30;;;;;;;18.15;12.43;;;5.70;82.70;;;3.66;95.35;96347.28;4960237;28;20525;-69
2021/11/17 03:48:35;;;;;;;20.02;13.45;;;5.70;82.80;;;3.67;96.11;96342.88;4954348;28;20051;-69
2021/11/17 03:51:55;;;;;;;18.67;12.63;;;5.70;83.00;;;3.68;95.93;96347.94;4948991;28;20074;-69
2021/11/17 03:54:55;;;;;;;17.50;12.65;;;5.70;82.90;;;3.69;96.30;96348.78;4943695;28;20131;-68
2021/11/17 03:57:58;;;;;;;18.38;12.38;;;5.70;82.90;;;3.68;96.23;96349.72;4946169;28;20091;-69
2021/11/17 04:00:58;;;;;;;21.25;13.70;;;5.70;83.00;;;3.68;96.40;96342.75;4931694;28;20032;-68
2021/11/17 04:04:01;;;;;;;20.05;13.45;;;5.70;83.20;;;3.69;96.27;96341.78;4952715;28;20067;-68
2021/11/17 04:06:50;;;;;;;20.83;13.80;;;5.70;83.10;;;3.67;96.26;96337.69;4936467;28;20515;-68
2021/11/17 04:09:39;;;;;;;19.52;13.15;;;5.70;83.30;;;3.69;96.02;96341.78;4938268;29;20052;-69
2021/11/17 04:12:25;;;;;;;20.40;14.27;;;5.80;83.20;;;3.71;96.58;96338.22;4926106;28;20039;-68
2021/11/17 04:15:29;;;;;;;20.38;13.27;;;5.80;83.20;;;3.72;96.23;96342.47;4928882;28;20062;-68
2021/11/17 04:18:23;;;;;;;20.27;13.60;;;5.90;83.20;;;3.73;96.49;96351.91;4967144;28;20534;-69
2021/11/17 04:21:33;;;;;;;19.38;13.50;;;5.80;83.20;;;3.72;97.07;96355.47;4946776;28;20035;-69
2021/11/17 04:24:26;;;;;;;18.48;13.35;;;5.80;83.10;;;3.72;96.95;96360.66;4931255;29;20642;-69
2021/11/17 04:27:19;;;;;;;21.20;13.38;;;5.70;83.20;;;3.72;96.56;96355.47;4961969;28;20211;-69
2021/11/17 04:30:00;;;;;;;21.00;13.77;;;5.80;83.20;;;3.72;96.70;96352.88;4952677;28;20035;-71
2021/11/17 04:32:45;;;;;;;20.15;12.95;;;5.90;83.20;;;3.75;97.11;96357.78;4947878;28;20401;-67
2021/11/17 04:35:32;;;;;;;20.52;13.95;;;5.80;83.00;;;3.73;96.49;96357.09;4931000;28;20439;-69
2021/11/17 04:38:14;;;;;;;24.15;13.45;;;5.80;83.10;;;3.71;96.76;96359.03;4950504;28;20046;-69
2021/11/17 04:41:14;;;;;;;19.30;14.23;;;5.70;83.50;;;3.72;96.56;96356.28;4959250;28;20117;-69
2021/11/17 04:44:09;;;;;;;21.83;14.05;;;5.70;83.60;;;3.73;97.00;96355.31;4951276;28;20058;-68
2021/11/17 04:47:02;;;;;;;20.48;13.13;;;5.80;83.60;;;3.73;97.73;96362.31;4951376;28;20032;-70
2021/11/17 04:49:56;;;;;;;28.50;18.27;;;5.80;83.60;;;3.73;97.13;96351.91;4953153;28;20310;-68
2021/11/17 04:52:50;;;;;;;23.63;16.95;;;5.80;83.50;;;3.75;97.50;96352.59;4944103;28;20546;-68
2021/11/17 04:55:28;;;;;;;19.88;13.88;;;5.90;83.40;;;3.77;97.64;96354.09;4932707;28;20529;-68
2021/11/17 04:58:33;;;;;;;25.75;16.70;;;5.80;83.70;;;3.78;97.44;96349.69;4944921;28;20174;-69
2021/11/17 05:01:11;;;;;;;23.75;16.85;;;5.90;83.60;;;3.79;97.96;96348.72;4951661;28;20054;-68
2021/11/17 05:04:01;;;;;;;22.05;14.52;;;5.80;83.40;;;3.80;96.74;96352.97;4952992;28;20134;-68
2021/11/17 05:06:41;;;;;;;22.38;14.70;;;5.90;83.60;;;3.80;96.97;96347.78;4934310;28;20423;-68
2021/11/17 05:09:49;;;;;;;20.88;14.88;;;5.90;83.60;;;3.81;97.57;96352.00;4946395;28;20039;-69
2021/11/17 05:12:37;;;;;;;22.10;14.23;;;5.90;83.50;;;3.80;97.70;96353.78;4938587;28;20071;-69
2021/11/17 05:15:26;;;;;;;22.17;14.00;;;5.90;83.60;;;3.79;97.34;96352.16;4951322;28;20039;-67
2021/11/17 05:18:31;;;;;;;20.67;14.45;;;5.80;83.70;;;3.81;97.57;96355.44;4944975;28;20474;-68
2021/11/17 05:21:34;;;;;;;25.30;17.23;;;5.90;83.90;;;3.81;98.17;96349.41;4950563;28;20039;-67
2021/11/17 05:24:15;;;;;;;27.27;18.02;;;5.90;84.00;;;3.82;97.61;96351.88;4949720;28;20039;-67
2021/11/17 05:27:05;;;;;;;30.70;20.88;;;5.90;83.80;;;3.83;97.68;96358.72;4951718;28;20036;-67
2021/11/17 05:30:09;;;;;;;25.80;16.67;;;6.00;83.60;;;3.83;97.51;96355.28;4964498;28;20494;-67
2021/11/17 05:33:00;;;;;;;29.58;20.77;;;5.90;83.30;;;3.84;98.32;96364.72;4930799;28;20370;-67
2021/11/17 05:35:43;;;;;;;23.67;16.08;;;5.90;83.80;;;3.85;97.79;96356.00;4958267;28;20074;-67
2021/11/17 05:38:40;;;;;;;26.08;17.67;;;5.90;83.80;;;3.83;97.54;96358.72;4931847;28;20050;-68
2021/11/17 05:41:47;;;;;;;24.25;15.27;;;5.90;83.90;;;3.82;98.22;96353.66;4960127;28;20151;-69
2021/11/17 05:44:34;;;;;;;22.17;15.77;;;5.80;83.90;;;3.83;98.12;96352.69;4938494;28;20039;-73
2021/11/17 05:47:30;;;;;;;22.20;15.20;;;5.80;84.00;;;3.83;98.12;96352.69;4951544;28;20645;-68
2021/11/17 05:50:36;;;;;;;24.15;16.10;;;5.90;84.00;;;3.85;97.81;96361.19;4965675;28;20186;-72
2021/11/17 05:53:42;;;;;;;22.17;14.80;;;5.80;84.20;;;3.84;97.88;96359.53;4950515;28;20032;-70
2021/11/17 05:56:37;;;;;;;23.90;16.30;;;5.80;84.20;;;3.84;98.11;96364.72;4952126;28;20122;-68
2021/11/17 05:59:27;;;;;;;23.33;15.77;;;5.80;84.50;;;3.84;98.88;96359.53;4931236;28;20043;-70
2021/11/17 06:02:26;;;;;;;64.32;39.60;;;5.90;84.60;;;3.84;98.98;96367.34;4950281;28;20054;-67
2021/11/17 06:04:53;;;;;;;33.55;21.25;;;5.90;84.50;;;3.83;98.02;96370.91;4950735;28;20034;-69
2021/11/17 06:07:18;;;;;;;30.23;20.05;;;5.80;84.60;;;3.83;98.53;96378.72;4947408;28;20161;-69
2021/11/17 06:09:44;;;;;;;26.95;18.05;;;5.90;84.50;;;3.83;98.85;96376.94;4945795;28;20060;-66
2021/11/17 06:12:11;;;;;;;26.75;17.00;;;5.80;84.70;;;3.79;98.18;96372.97;4948251;28;20035;-63
2021/11/17 06:14:43;;;;;;;25.70;16.73;;;5.80;84.50;;;3.83;99.09;96378.72;4946196;28;20512;-67
2021/11/17 06:17:18;;;;;;;25.85;17.30;;;5.80;85.00;;;3.82;98.65;96377.06;4963841;28;20070;-68
2021/11/17 06:19:46;;;;;;;24.70;16.55;;;5.80;84.80;;;3.76;98.82;96382.84;4939082;28;20043;-67
2021/11/17 06:22:12;;;;;;;23.92;15.50;;;5.90;84.80;;;3.82;99.07;96388.28;4932984;29;20035;-67
2021/11/17 06:24:38;;;;;;;26.48;16.65;;;5.90;84.70;;;3.84;98.91;96390.75;4930298;28;20131;-68
2021/11/17 06:27:06;;;;;;;28.90;16.73;;;5.90;84.60;;;3.85;98.61;96382.03;4940438;28;20024;-68
2021/11/17 06:29:37;;;;;;;25.75;16.60;;;5.90;84.50;;;3.82;98.89;96392.69;4946609;28;20059;-68
2021/11/17 06:32:03;;;;;;;24.92;16.00;;;5.90;84.70;;;3.85;98.81;96401.06;4930526;28;20047;-68
2021/11/17 06:34:48;;;;;;;26.08;16.45;;;6.00;84.90;;;3.86;99.75;96399.28;4965950;28;20045;-68
2021/11/17 06:37:19;;;;;;;26.65;17.55;;;5.90;84.80;;;3.87;99.32;96404.34;4964739;28;20039;-67
2021/11/17 06:39:47;;;;;;;25.55;17.83;;;6.00;84.70;;;3.86;99.60;96394.88;4949797;29;20474;-68
2021/11/17 06:42:22;;;;;;;25.45;16.60;;;5.90;84.60;;;3.88;98.97;96397.34;4948850;29;20420;-68
2021/11/17 06:44:48;;;;;;;27.50;16.70;;;6.00;84.50;;;3.88;99.37;96407.75;4963854;28;20050;-68
2021/11/17 06:47:13;;;;;;;28.00;17.30;;;5.90;84.80;;;3.86;98.95;96417.50;4946639;28;20055;-68
2021/11/17 06:49:39;;;;;;;27.20;17.85;;;5.90;84.80;;;3.85;99.04;96414.06;4946344;28;20035;-67
2021/11/17 06:52:06;;;;;;;26.23;16.42;;;5.90;84.80;;;3.88;99.42;96423.38;4947141;28;20050;-68
2021/11/17 06:54:32;;;;;;;26.65;17.35;;;5.90;84.60;;;3.87;99.12;96422.56;4927660;29;20043;-66
2021/11/17 06:56:57;;;;;;;26.15;17.75;;;5.90;84.80;;;3.84;99.07;96422.81;4935660;28;20504;-68
2021/11/17 06:59:23;;;;;;;27.00;17.55;;;5.90;84.80;;;3.85;99.67;96423.66;4901423;29;20155;-67
2021/11/17 07:01:49;;;;;;;26.13;16.63;;;5.90;84.80;;;3.83;99.39;96430.75;4952253;28;20522;-67
2021/11/17 07:04:14;;;;;;;28.95;17.98;;;5.80;85.00;;;3.83;98.85;96435.94;4953212;29;20039;-68
2021/11/17 07:06:40;;;;;;;38.92;24.35;;;5.80;85.10;;;3.82;99.36;96424.72;4952932;28;20080;-67
2021/11/17 07:09:08;;;;;;;51.17;34.42;;;5.90;85.30;;;3.86;99.61;96430.50;4951843;28;20051;-69
2021/11/17 07:11:37;;;;;;;37.03;26.20;;;6.00;85.50;;;3.88;100.00;96425.97;4949004;28;20039;-68
2021/11/17 07:14:05;;;;;;;31.98;19.95;;;6.00;85.30;;;3.89;99.50;96432.81;4922312;28;20046;-68
2021/11/17 07:16:33;;;;;;;27.65;18.92;;;5.90;84.90;;;3.89;100.00;96433.63;4953601;28;20038;-69
2021/11/17 07:18:59;;;;;;;28.17;17.83;;;6.00;85.00;;;3.91;100.00;96444.72;4952725;28;20109;-69
2021/11/17 07:21:25;;;;;;;25.10;16.42;;;6.10;85.00;;;3.93;99.47;96439.38;4921506;29;20027;-68
2021/11/17 07:23:51;;;;;;;26.85;17.20;;;6.10;84.70;;;3.93;99.64;96436.78;4919508;29;20483;-68
2021/11/17 07:26:17;;;;;;;25.80;16.70;;;6.10;84.60;;;3.95;100.00;96443.47;4953185;28;20044;-68
2021/11/17 07:28:42;;;;;;;27.05;17.25;;;6.10;84.60;;;3.96;99.69;96431.28;4920485;28;20122;-67
2021/11/17 07:31:08;;;;;;;30.27;18.20;;;6.10;84.70;;;3.99;100.00;96437.03;4936609;29;20124;-67
2021/11/17 07:33:34;;;;;;;29.73;19.88;;;6.20;84.50;;;4.05;100.00;96440.84;4969053;28;20043;-70
2021/11/17 07:36:00;;;;;;;27.27;18.27;;;6.20;84.40;;;4.06;99.72;96434.69;4967689;28;20514;-70
2021/11/17 07:38:25;;;;;;;24.02;16.83;;;6.30;84.20;;;4.08;100.00;96440.59;4935243;28;20066;-69
2021/11/17 07:40:52;;;;;;;26.75;16.92;;;6.20;84.10;;;4.12;99.83;96441.94;4966378;28;20106;-68
2021/11/17 07:43:20;;;;;;;26.05;17.45;;;6.30;84.00;;;4.15;99.34;96449.47;4948439;28;20046;-68
2021/11/17 07:45:46;;;;;;;25.65;15.85;;;6.30;83.70;;;4.16;98.98;96445.91;4934789;28;20032;-69
2021/11/17 07:48:12;;;;;;;25.75;18.27;;;6.40;83.90;;;4.19;98.85;96443.03;4951250;29;20058;-67
2021/11/17 07:50:39;;;;;;;27.60;17.85;;;6.40;83.60;;;4.21;99.08;96454.13;4948659;28;20091;-68
2021/11/17 07:53:06;;;;;;;33.95;22.85;;;6.40;83.80;;;4.25;99.03;96452.88;4936015;29;20127;-69
2021/11/17 07:55:32;;;;;;;36.60;22.52;;;6.40;83.90;;;4.27;98.74;96460.53;4964896;28;20526;-64
2021/11/17 07:57:58;;;;;;;29.80;20.83;;;6.50;83.70;;;4.29;99.53;96459.44;4920897;28;20039;-71
2021/11/17 08:00:26;;;;;;;25.58;17.35;;;6.50;83.80;;;4.32;98.55;96455.75;4968475;28;20130;-67
2021/11/17 08:02:52;;;;;;;23.95;17.42;;;6.40;83.40;;;4.36;99.34;96458.88;4966852;28;20039;-68
2021/11/17 08:05:20;;;;;;;26.00;17.15;;;6.50;83.80;;;4.38;99.37;96457.78;4949558;28;20043;-68
2021/11/17 08:07:46;;;;;;;24.38;17.50;;;6.60;83.50;;;4.39;98.83;96456.00;4912755;29;20039;-66
2021/11/17 08:10:28;;;;;;;26.60;17.33;;;6.60;82.90;;;4.41;98.22;96459.28;4951779;28;20059;-67
2021/11/17 08:12:54;;;;;;;24.75;16.17;;;6.60;82.70;;;4.43;98.89;96465.16;4966129;28;20044;-63
2021/11/17 08:15:20;;;;;;;23.33;16.55;;;6.60;82.80;;;4.45;98.32;96458.03;4952230;28;20038;-63
2021/11/17 08:17:46;;;;;;;23.38;15.82;;;6.60;83.10;;;4.49;97.83;96467.19;4951907;28;20040;-68
2021/11/17 08:20:14;;;;;;;23.27;16.55;;;6.60;82.40;;;4.49;97.67;96464.59;4920894;29;20114;-66
2021/11/17 08:22:40;;;;;;;26.25;18.80;;;6.60;82.80;;;4.50;98.25;96474.84;4950339;28;20535;-68
2021/11/17 08:25:07;;;;;;;30.90;22.98;;;6.70;82.90;;;4.55;98.35;96477.88;4935216;28;20046;-68
2021/11/17 08:27:32;;;;;;;24.42;17.63;;;6.80;83.20;;;4.58;98.04;96480.19;4951913;28;20156;-67
2021/11/17 08:29:58;;;;;;;26.65;18.95;;;6.80;83.30;;;4.65;98.40;96485.66;4933796;28;20143;-68
2021/11/17 08:32:24;;;;;;;28.05;20.48;;;6.90;83.30;;;4.68;98.61;96482.75;4924551;29;20118;-67
2021/11/17 08:34:50;;;;;;;25.75;20.33;;;6.90;82.90;;;4.73;98.31;96487.53;4948737;28;20042;-68
2021/11/17 08:37:16;;;;;;;19.92;14.95;;;7.00;82.70;;;4.75;98.50;96491.66;4955946;28;20055;-70
2021/11/17 08:39:43;;;;;;;21.23;15.70;;;6.90;82.00;;;4.77;97.84;96499.34;4951314;28;20023;-70
2021/11/17 08:42:10;;;;;;;20.67;15.75;;;6.90;82.00;;;4.78;97.91;96501.81;4934981;29;20058;-69
2021/11/17 08:44:38;;;;;;;22.00;15.10;;;6.80;82.20;;;4.80;96.75;96505.09;4967923;28;20028;-70
2021/11/17 08:47:06;;;;;;;23.25;16.80;;;6.80;81.90;;;4.81;97.42;96508.50;4965965;28;20164;-69
2021/11/17 08:49:32;;;;;;;22.27;15.32;;;7.00;82.00;;;4.83;96.57;96510.00;4936366;29;20094;-67
2021/11/17 08:51:58;;;;;;;21.95;16.02;;;6.90;81.50;;;4.85;96.32;96508.06;4952445;28;20043;-68
2021/11/17 08:54:25;;;;;;;20.77;16.45;;;7.00;81.80;;;4.87;96.32;96511.34;4948731;28;20414;-66
2021/11/17 08:56:51;;;;;;;20.48;14.68;;;7.00;81.40;;;4.90;96.43;96510.25;4949947;28;20059;-68
2021/11/17 08:59:16;;;;;;;21.70;15.95;;;7.00;81.50;;;4.89;96.52;96519.84;4940314;28;20078;-68
2021/11/17 09:01:42;;;;;;;19.70;14.95;;;6.90;81.30;;;4.90;95.52;96518.88;4946280;28;20122;-67
2021/11/17 09:04:08;;;;;;;20.63;15.27;;;7.00;81.40;;;4.92;96.28;96522.16;4942340;28;20549;-68
2021/11/17 09:06:36;;;;;;;20.65;15.48;;;7.00;81.00;;;4.92;96.00;96523.94;4947725;28;20036;-69
2021/11/17 09:09:06;;;;;;;20.17;16.52;;;7.00;81.40;;;4.93;95.36;96525.59;4948449;28;20039;-68
2021/11/17 09:11:32;;;;;;;20.33;14.52;;;7.00;81.40;;;4.96;95.42;96524.47;4948592;28;20411;-67
2021/11/17 09:13:58;;;;;;;20.33;15.85;;;7.00;81.20;;;4.98;95.98;96525.16;4966194;28;20039;-67
2021/11/17 09:16:24;;;;;;;22.50;15.20;;;7.10;81.70;;;5.01;95.29;96522.28;4962197;28;20044;-68
2021/11/17 09:18:52;;;;;;;18.75;14.38;;;7.10;81.10;;;5.03;94.98;96531.59;4932776;28;20031;-68
2021/11/17 09:21:19;;;;;;;18.23;14.90;;;7.20;81.30;;;5.08;96.22;96525.94;4941910;28;20040;-69
2021/11/17 09:23:45;;;;;;;16.77;14.18;;;7.30;81.00;;;5.11;95.67;96529.09;4934631;29;20043;-67
2021/11/17 09:26:12;;;;;;;17.52;12.98;;;7.30;80.40;;;5.15;95.17;96524.41;4948953;28;20114;-62
2021/11/17 09:28:37;;;;;;;17.90;13.85;;;7.30;80.40;;;5.15;94.38;96530.44;4944288;28;20062;-67
2021/11/17 09:31:04;;;;;;;19.27;13.05;;;7.30;80.10;;;5.16;94.34;96536.47;4927790;29;20070;-68
2021/11/17 09:33:30;;;;;;;17.88;14.38;;;7.20;79.90;;;5.19;94.12;96523.97;4961502;28;20122;-69
2021/11/17 09:35:56;;;;;;;18.17;13.32;;;7.20;80.20;;;5.20;93.16;96527.38;4949174;28;20042;-69
2021/11/17 09:38:22;;;;;;;18.92;14.40;;;7.20;79.70;;;5.18;93.99;96535.34;4960910;28;20126;-71
2021/11/17 09:41:00;;;;;;;19.55;14.73;;;7.20;79.80;;;5.21;93.10;96534.28;4944225;28;20024;-69
2021/11/17 09:43:34;;;;;;;18.35;13.20;;;7.40;79.70;;;5.27;92.97;96533.69;4947452;28;20116;-67
2021/11/17 09:46:01;;;;;;;17.58;13.30;;;7.40;79.90;;;5.31;94.19;96535.03;4947655;28;20031;-68
2021/11/17 09:48:36;;;;;;;15.32;13.02;;;7.60;79.90;;;5.34;92.77;96524.31;4918542;29;20059;-68
2021/11/17 09:51:20;;;;;;;14.27;11.35;;;7.60;78.80;;;5.36;92.03;96531.97;4965065;28;20518;-69
2021/11/17 09:53:51;;;;;;;14.60;12.57;;;7.50;78.40;;;5.37;92.04;96534.44;4947972;28;20031;-69
2021/11/17 09:56:51;;;;;;;15.48;12.70;;;7.50;78.50;;;5.39;92.60;96540.31;4964980;28;20031;-68
2021/11/17 09:59:38;;;;;;;16.45;12.10;;;7.60;78.90;;;5.43;92.48;96552.13;4962278;28;20027;-68
2021/11/17 10:02:37;;;;;;;15.82;11.15;;;7.60;78.60;;;5.47;91.34;96550.88;4935819;28;20042;-70
2021/11/17 10:11:44;;;;;;;16.50;13.07;;;7.60;78.80;;;5.49;91.61;96556.78;4947518;28;20605;-71
2021/11/17 10:14:16;;;;;;;18.50;13.45;;;7.60;78.90;;;5.52;92.25;96561.69;4940523;28;20040;-68
2021/11/17 10:16:43;;;;;;;15.52;12.90;;;7.50;78.80;;;5.52;91.36;96564.31;4960967;28;20039;-66
2021/11/17 10:19:26;;;;;;;16.40;12.55;;;7.60;78.80;;;5.56;90.63;96564.00;4946111;28;20049;-67
2021/11/17 10:22:07;;;;;;;15.05;10.88;;;7.60;78.50;;;5.58;90.99;96564.69;4945022;28;20044;-67
2021/11/17 10:24:50;;;;;;;14.75;11.13;;;7.70;78.70;;;5.58;90.64;96562.06;4948475;28;20035;-67
2021/11/17 10:27:23;;;;;;;14.60;10.70;;;7.60;78.20;;;5.58;91.07;96551.63;4933605;28;20058;-67
2021/11/17 10:29:58;;;;;;;14.30;11.05;;;7.70;78.00;;;5.62;90.50;96555.56;4949113;28;20031;-68
2021/11/17 10:32:37;;;;;;;14.95;11.48;;;7.70;78.30;;;5.66;90.36;96559.53;4908579;29;20524;-68
2021/11/17 10:35:24;;;;;;;13.02;10.73;;;7.80;77.50;;;5.69;90.29;96554.88;4926988;28;20035;-67
2021/11/17 10:38:30;;;;;;;13.32;11.13;;;7.90;77.60;;;5.72;89.32;96551.13;4933941;28;20070;-71
2021/11/17 10:41:04;;;;;;;13.23;10.30;;;7.80;77.60;;;5.71;90.14;96545.09;4945767;28;20575;-68
2021/11/17 10:43:36;;;;;;;12.82;9.93;;;7.80;77.00;;;5.75;89.79;96543.00;4964667;28;20031;-66
2021/11/17 10:46:17;;;;;;;12.65;9.68;;;7.80;76.70;;;5.78;89.17;96537.47;4948712;28;20535;-67
2021/11/17 10:49:05;;;;;;;12.90;9.05;;;8.00;76.60;;;5.82;88.70;96537.03;4919751;28;20031;-69
2021/11/17 10:51:50;;;;;;;11.32;9.43;;;8.00;76.30;;;5.88;89.23;96535.59;4935335;28;20039;-66
2021/11/17 10:54:19;;;;;;;12.63;9.57;;;8.10;75.90;;;5.92;89.16;96528.34;4963427;28;20104;-68
2021/11/17 10:57:00;;;;;;;11.23;9.02;;;8.10;75.70;;;5.94;87.36;96527.25;4933318;28;20047;-67
2021/11/17 10:59:26;;;;;;;11.13;9.13;;;8.00;75.60;;;5.92;87.86;96528.34;4934813;29;20446;-65
2021/11/17 11:01:52;;;;;;;11.23;8.93;;;7.90;75.80;;;5.92;87.73;96523.13;4964346;28;20057;-65
2021/11/17 11:04:22;;;;;;;10.85;8.55;;;8.00;75.90;;;5.92;87.49;96525.75;4948993;28;20414;-65
2021/11/17 11:06:57;;;;;;;10.23;7.60;;;7.80;74.90;;;5.87;86.89;96520.91;4932176;28;20471;-68
2021/11/17 11:09:47;;;;;;;11.73;8.45;;;7.90;75.00;;;5.88;85.49;96526.97;4951840;28;20659;-66
2021/11/17 11:12:16;;;;;;;10.13;7.65;;;7.80;75.20;;;5.87;86.51;96526.13;4920113;28;20043;-65
2021/11/17 11:14:55;;;;;;;9.27;7.68;;;8.10;74.80;;;5.95;85.80;96534.09;4931289;28;20046;-67
2021/11/17 11:17:37;;;;;;;9.38;7.82;;;8.10;74.70;;;5.99;86.69;96529.41;4915133;29;20039;-65
2021/11/17 11:20:24;;;;;;;10.10;7.57;;;8.10;74.90;;;6.03;84.88;96530.72;4949737;28;20142;-66
2021/11/17 11:23:05;;;;;;;8.02;7.07;;;8.20;73.70;;;6.08;85.33;96531.91;4947876;28;20031;-66
2021/11/17 11:26:08;;;;;;;7.68;6.70;;;8.30;73.70;;;6.13;84.19;96528.88;4950417;28;20063;-65
2021/11/17 11:28:35;;;;;;;9.52;7.47;;;8.30;73.00;;;6.14;85.96;96523.50;4943258;28;20064;-64
2021/11/17 11:31:06;;;;;;;8.80;7.25;;;8.40;73.40;;;6.17;85.33;96521.56;4941008;28;20130;-65
2021/11/17 11:33:54;;;;;;;9.73;7.80;;;8.30;73.00;;;6.19;83.85;96515.19;4950098;28;20039;-68
2021/11/17 11:36:22;;;;;;;8.07;6.57;;;8.30;72.90;;;6.16;84.08;96519.91;4947081;28;20062;-68
2021/11/17 11:38:57;;;;;;;7.57;6.15;;;8.10;72.60;;;6.14;83.44;96509.63;4945059;28;20418;-67
2021/11/17 11:41:29;;;;;;;7.20;5.55;;;8.10;72.80;;;6.06;83.25;96501.69;4965968;28;20050;-68
2021/11/17 11:44:16;;;;;;;6.57;5.30;;;8.10;73.00;;;6.07;82.41;96508.56;4950641;28;20094;-67
2021/11/17 11:46:54;;;;;;;6.05;5.30;;;8.00;72.50;;;6.03;83.50;96505.44;4949617;28;20035;-68
2021/11/17 11:49:40;;;;;;;5.70;4.88;;;8.10;72.50;;;6.05;82.55;96505.28;4935867;29;20065;-67
2021/11/17 11:52:12;;;;;;;6.72;5.55;;;8.00;72.60;;;6.02;83.97;96514.25;4944303;28;20047;-66
2021/11/17 11:54:58;;;;;;;6.18;5.28;;;8.00;73.30;;;6.03;82.78;96515.06;4938255;28;20477;-68
2021/11/17 11:57:27;;;;;;;6.30;5.00;;;8.10;73.30;;;6.00;83.45;96513.56;4946202;28;20043;-69
2021/11/17 12:00:03;;;;;;;7.00;5.38;;;8.00;73.30;;;5.97;83.56;96516.50;4952670;28;20040;-69
2021/11/17 12:03:00;;;;;;;6.18;5.57;;;7.90;73.60;;;5.94;83.53;96518.59;4950972;28;20087;-68
2021/11/17 12:06:00;;;;;;;7.53;6.53;;;7.80;73.30;;;5.93;83.47;96515.16;4961264;28;20042;-68
2021/11/17 12:08:33;;;;;;;10.43;8.15;;;8.00;73.90;;;5.90;83.44;96515.47;4933487;29;20032;-70
2021/11/17 12:11:01;;;;;;;12.20;9.88;;;7.70;73.60;;;5.87;84.11;96518.31;4946727;28;20134;-67
2021/11/17 12:13:30;;;;;;;10.35;8.63;;;7.70;74.00;;;5.86;84.05;96524.50;4953213;28;20039;-68
2021/11/17 12:16:12;;;;;;;11.25;10.05;;;7.70;73.80;;;5.87;84.25;96520.91;4965569;28;20059;-69
2021/11/17 12:18:46;;;;;;;13.18;10.32;;;7.90;74.40;;;5.88;83.66;96519.94;4967603;28;20090;-71
2021/11/17 12:21:31;;;;;;;13.23;9.52;;;7.90;73.60;;;5.87;83.98;96518.31;4964683;28;20055;-69
2021/11/17 12:24:32;;;;;;;9.25;7.47;;;7.90;73.60;;;5.91;83.07;96517.09;4948267;28;20040;-69
2021/11/17 12:27:21;;;;;;;9.82;8.00;;;7.90;73.40;;;5.94;83.06;96522.00;4929772;28;20044;-70
2021/11/17 12:30:11;;;;;;;9.32;7.38;;;8.10;72.90;;;5.97;83.68;96521.72;4932795;29;20038;-69
2021/11/17 12:33:02;;;;;;;8.63;6.70;;;8.10;73.20;;;6.01;83.08;96523.03;4928689;29;20051;-69
2021/11/17 12:35:36;;;;;;;34.85;17.63;;;8.10;72.60;;;6.02;83.10;96529.91;4931917;28;20047;-68
2021/11/17 12:38:17;;;;;;;22.58;13.00;;;8.10;72.40;;;6.03;83.20;96530.72;4932771;29;20039;-68
2021/11/17 12:40:48;;;;;;;12.60;8.77;;;8.10;73.10;;;6.02;83.15;96540.34;4925228;28;20051;-68
2021/11/17 12:43:41;;;;;;;9.60;7.60;;;8.00;73.10;;;6.03;82.67;96530.72;4962797;28;20040;-69
2021/11/17 12:46:31;;;;;;;9.70;6.35;;;8.10;73.10;;;6.02;82.32;96524.69;4934721;29;20127;-67
2021/11/17 12:49:11;;;;;;;9.13;6.50;;;8.10;72.70;;;5.99;82.43;96519.75;4965598;28;20035;-70
2021/11/17 12:51:48;;;;;;;9.25;7.43;;;8.10;72.70;;;6.00;82.87;96518.78;4964594;28;20043;-68
2021/11/17 12:54:37;;;;;;;9.32;6.95;;;8.10;73.00;;;6.01;83.27;96528.28;4903386;29;20530;-66
2021/11/17 12:57:27;;;;;;;8.73;6.97;;;8.10;73.20;;;6.03;82.82;96522.91;4950652;28;20628;-69
2021/11/17 13:00:02;;;;;;;8.45;6.60;;;8.10;73.00;;;6.01;82.86;96523.03;4966492;28;20050;-69
2021/11/17 13:02:33;;;;;;;8.70;6.30;;;8.10;73.10;;;6.00;83.16;96525.81;4935370;28;20046;-68
2021/11/17 13:05:22;;;;;;;9.52;6.90;;;8.10;73.20;;;6.03;82.67;96528.94;4946815;28;20138;-69
2021/11/17 13:07:54;;;;;;;10.32;6.22;;;8.10;72.90;;;6.00;83.17;96524.03;4951171;28;20043;-66
2021/11/17 13:10:32;;;;;;;9.38;6.75;;;8.00;73.90;;;6.02;83.15;96535.13;4919555;29;20505;-69
2021/11/17 13:13:19;;;;;;;13.15;9.25;;;8.00;73.50;;;5.96;82.41;96527.91;4951232;28;20477;-69
2021/11/17 13:15:48;;;;;;;7.40;5.78;;;7.90;73.90;;;5.93;83.27;96525.59;4950024;28;20038;-69
2021/11/17 13:18:42;;;;;;;8.68;5.90;;;7.90;73.80;;;5.90;83.01;96527.69;4952644;28;20043;-70
2021/11/17 13:21:26;;;;;;;6.97;5.07;;;7.70;74.20;;;5.85;83.56;96528.06;4936363;28;20494;-67
2021/11/17 13:24:16;;;;;;;6.50;5.25;;;7.70;74.50;;;5.85;84.09;96525.47;4950607;28;20059;-67
2021/11/17 13:27:11;;;;;;;7.32;5.20;;;7.80;74.70;;;5.83;83.95;96530.03;4949771;28;20051;-67
2021/11/17 13:30:29;;;;;;;7.15;5.63;;;7.80;74.60;;;5.82;84.35;96528.38;4947756;28;20047;-67
2021/11/17 13:32:55;;;;;;;5.90;4.15;;;7.90;74.60;;;5.73;84.28;96518.84;4931763;28;20036;-66
2021/11/17 13:35:37;;;;;;;6.05;4.72;;;7.80;73.60;;;5.78;83.52;96527.03;4945672;28;20045;-65
2021/11/17 13:38:24;;;;;;;6.20;4.65;;;7.60;74.20;;;5.77;84.18;96535.84;4950417;28;20046;-68
2021/11/17 13:40:55;;;;;;;7.03;4.97;;;7.70;74.80;;;5.73;84.03;96539.72;4949850;28;20047;-66
2021/11/17 13:43:22;;;;;;;6.07;4.50;;;7.60;74.70;;;5.73;83.64;96539.72;4918037;29;20094;-66
2021/11/17 13:45:50;;;;;;;8.10;4.57;;;7.60;74.60;;;5.70;83.87;96534.81;4946660;28;20102;-66
2021/11/17 13:48:19;;;;;;;6.07;3.92;;;7.60;74.80;;;5.67;83.69;96530.69;4942453;28;20171;-69